sensor_id;sensor_type;location;lat;lon;timestamp;temperature;humidity
47813;DHT22;34221;45.296;9.516;2022-09-16T00:00:05;24.10;80.60
47813;DHT22;34221;45.296;9.516;2022-09-16T00:00:21;24.20;80.60
47813;DHT22;34221;45.296;9.516;2022-09-16T00:00:41;24.20;80.70
47813;DHT22;34221;45.296;9.516;2022-09-16T00:00:59;24.20;80.70
47813;DHT22;34221;45.296;9.516;2022-09-16T00:01:16;24.20;80.60
47813;DHT22;34221;45.296;9.516;2022-09-16T00:01:32;24.20;80.50
47813;DHT22;34221;45.296;9.516;2022-09-16T00:01:47;24.20;80.50
47813;DHT22;34221;45.296;9.516;2022-09-16T00:02:02;24.20;80.60
47813;DHT22;34221;45.296;9.516;2022-09-16T00:02:17;24.20;80.70
47813;DHT22;34221;45.296;9.516;2022-09-16T00:02:32;24.20;80.70
47813;DHT22;34221;45.296;9.516;2022-09-16T00:02:47;24.20;80.60
47813;DHT22;34221;45.296;9.516;2022-09-16T00:03:02;24.20;80.60
47813;DHT22;34221;45.296;9.516;2022-09-16T00:03:18;24.20;80.60
47813;DHT22;34221;45.296;9.516;2022-09-16T00:03:33;24.20;80.60
47813;DHT22;34221;45.296;9.516;2022-09-16T00:03:52;24.20;81.10
47813;DHT22;34221;45.296;9.516;2022-09-16T00:04:08;24.20;80.50
47813;DHT22;34221;45.296;9.516;2022-09-16T00:04:23;24.20;80.40
47813;DHT22;34221;45.296;9.516;2022-09-16T00:04:39;24.30;80.40
47813;DHT22;34221;45.296;9.516;2022-09-16T00:04:54;24.30;80.30
47813;DHT22;34221;45.296;9.516;2022-09-16T00:05:09;24.30;80.30
47813;DHT22;34221;45.296;9.516;2022-09-16T00:05:24;24.30;80.30
47813;DHT22;34221;45.296;9.516;2022-09-16T00:05:41;24.30;80.30
47813;DHT22;34221;45.296;9.516;2022-09-16T00:05:59;24.30;80.30
47813;DHT22;34221;45.296;9.516;2022-09-16T00:06:23;24.30;80.30
47813;DHT22;34221;45.296;9.516;2022-09-16T00:06:39;24.30;80.30
47813;DHT22;34221;45.296;9.516;2022-09-16T00:06:54;24.30;80.30
47813;DHT22;34221;45.296;9.516;2022-09-16T00:07:09;24.30;80.30
47813;DHT22;34221;45.296;9.516;2022-09-16T00:07:24;24.30;80.30
47813;DHT22;34221;45.296;9.516;2022-09-16T00:07:39;24.30;80.30
47813;DHT22;34221;45.296;9.516;2022-09-16T00:07:53;24.30;80.30
47813;DHT22;34221;45.296;9.516;2022-09-16T00:08:09;24.30;80.30
47813;DHT22;34221;45.296;9.516;2022-09-16T00:08:25;24.30;80.30
47813;DHT22;34221;45.296;9.516;2022-09-16T00:08:39;24.20;80.30
47813;DHT22;34221;45.296;9.516;2022-09-16T00:08:59;24.20;80.20
47813;DHT22;34221;45.296;9.516;2022-09-16T00:09:16;24.20;80.30
47813;DHT22;34221;45.296;9.516;2022-09-16T00:09:31;24.20;80.30
47813;DHT22;34221;45.296;9.516;2022-09-16T00:09:46;24.20;80.40
47813;DHT22;34221;45.296;9.516;2022-09-16T00:10:02;24.20;80.40
47813;DHT22;34221;45.296;9.516;2022-09-16T00:10:18;24.20;80.50
47813;DHT22;34221;45.296;9.516;2022-09-16T00:10:35;24.20;80.50
47813;DHT22;34221;45.296;9.516;2022-09-16T00:10:50;24.20;80.50
47813;DHT22;34221;45.296;9.516;2022-09-16T00:11:24;24.10;80.50
47813;DHT22;34221;45.296;9.516;2022-09-16T00:11:39;24.10;80.60
47813;DHT22;34221;45.296;9.516;2022-09-16T00:11:54;24.10;80.70
47813;DHT22;34221;45.296;9.516;2022-09-16T00:12:09;24.10;80.70
47813;DHT22;34221;45.296;9.516;2022-09-16T00:12:24;24.10;80.70
47813;DHT22;34221;45.296;9.516;2022-09-16T00:12:39;24.10;80.70
47813;DHT22;34221;45.296;9.516;2022-09-16T00:12:55;24.10;80.80
47813;DHT22;34221;45.296;9.516;2022-09-16T00:13:11;24.10;80.80
47813;DHT22;34221;45.296;9.516;2022-09-16T00:13:27;24.10;80.80
47813;DHT22;34221;45.296;9.516;2022-09-16T00:13:42;24.10;80.90
47813;DHT22;34221;45.296;9.516;2022-09-16T00:13:56;24.10;80.90
47813;DHT22;34221;45.296;9.516;2022-09-16T00:14:11;24.00;80.90
47813;DHT22;34221;45.296;9.516;2022-09-16T00:14:26;24.00;80.90
47813;DHT22;34221;45.296;9.516;2022-09-16T00:14:41;24.10;81.00
47813;DHT22;34221;45.296;9.516;2022-09-16T00:14:56;24.10;81.10
47813;DHT22;34221;45.296;9.516;2022-09-16T00:15:12;24.10;81.10
47813;DHT22;34221;45.296;9.516;2022-09-16T00:15:27;24.10;81.10
47813;DHT22;34221;45.296;9.516;2022-09-16T00:15:48;24.00;81.00
47813;DHT22;34221;45.296;9.516;2022-09-16T00:16:09;24.10;81.10
47813;DHT22;34221;45.296;9.516;2022-09-16T00:16:28;24.00;81.10
47813;DHT22;34221;45.296;9.516;2022-09-16T00:16:43;24.10;81.10
47813;DHT22;34221;45.296;9.516;2022-09-16T00:16:58;24.00;81.10
47813;DHT22;34221;45.296;9.516;2022-09-16T00:17:13;24.00;81.40
47813;DHT22;34221;45.296;9.516;2022-09-16T00:17:28;24.00;81.40
47813;DHT22;34221;45.296;9.516;2022-09-16T00:17:44;24.00;81.40
47813;DHT22;34221;45.296;9.516;2022-09-16T00:17:59;24.00;81.40
47813;DHT22;34221;45.296;9.516;2022-09-16T00:18:14;24.00;81.40
47813;DHT22;34221;45.296;9.516;2022-09-16T00:18:29;24.00;81.40
47813;DHT22;34221;45.296;9.516;2022-09-16T00:18:44;24.00;81.30
47813;DHT22;34221;45.296;9.516;2022-09-16T00:19:00;24.00;81.30
47813;DHT22;34221;45.296;9.516;2022-09-16T00:19:16;24.00;81.30
47813;DHT22;34221;45.296;9.516;2022-09-16T00:19:31;23.90;81.30
47813;DHT22;34221;45.296;9.516;2022-09-16T00:19:46;23.90;81.40
47813;DHT22;34221;45.296;9.516;2022-09-16T00:20:04;23.90;81.40
47813;DHT22;34221;45.296;9.516;2022-09-16T00:20:20;23.90;81.40
47813;DHT22;34221;45.296;9.516;2022-09-16T00:20:35;23.90;81.40
47813;DHT22;34221;45.296;9.516;2022-09-16T00:20:51;23.90;81.40
47813;DHT22;34221;45.296;9.516;2022-09-16T00:21:08;23.90;81.50
47813;DHT22;34221;45.296;9.516;2022-09-16T00:21:24;23.90;81.50
47813;DHT22;34221;45.296;9.516;2022-09-16T00:21:41;23.90;81.50
47813;DHT22;34221;45.296;9.516;2022-09-16T00:21:55;23.90;81.50
47813;DHT22;34221;45.296;9.516;2022-09-16T00:22:10;23.90;81.50
47813;DHT22;34221;45.296;9.516;2022-09-16T00:22:28;23.90;81.60
47813;DHT22;34221;45.296;9.516;2022-09-16T00:22:43;23.90;81.60
47813;DHT22;34221;45.296;9.516;2022-09-16T00:22:58;23.90;81.60
47813;DHT22;34221;45.296;9.516;2022-09-16T00:23:14;23.90;81.60
47813;DHT22;34221;45.296;9.516;2022-09-16T00:23:29;23.90;81.60
47813;DHT22;34221;45.296;9.516;2022-09-16T00:23:46;23.90;81.60
47813;DHT22;34221;45.296;9.516;2022-09-16T00:24:01;23.90;81.60
47813;DHT22;34221;45.296;9.516;2022-09-16T00:24:16;23.90;81.60
47813;DHT22;34221;45.296;9.516;2022-09-16T00:24:31;23.90;81.60
47813;DHT22;34221;45.296;9.516;2022-09-16T00:24:47;23.90;81.60
47813;DHT22;34221;45.296;9.516;2022-09-16T00:25:03;23.90;81.60
47813;DHT22;34221;45.296;9.516;2022-09-16T00:25:18;23.90;81.60
47813;DHT22;34221;45.296;9.516;2022-09-16T00:25:33;23.90;81.60
47813;DHT22;34221;45.296;9.516;2022-09-16T00:25:52;23.90;82.20
47813;DHT22;34221;45.296;9.516;2022-09-16T00:26:07;23.90;81.60
47813;DHT22;34221;45.296;9.516;2022-09-16T00:26:22;23.90;81.70
47813;DHT22;34221;45.296;9.516;2022-09-16T00:26:37;23.90;81.70
47813;DHT22;34221;45.296;9.516;2022-09-16T00:26:53;23.90;81.80
47813;DHT22;34221;45.296;9.516;2022-09-16T00:27:09;23.90;81.80
47813;DHT22;34221;45.296;9.516;2022-09-16T00:27:24;23.90;81.70
47813;DHT22;34221;45.296;9.516;2022-09-16T00:27:39;23.90;81.70
47813;DHT22;34221;45.296;9.516;2022-09-16T00:27:54;23.90;81.80
47813;DHT22;34221;45.296;9.516;2022-09-16T00:28:09;23.90;81.80
47813;DHT22;34221;45.296;9.516;2022-09-16T00:28:24;23.80;81.60
47813;DHT22;34221;45.296;9.516;2022-09-16T00:28:39;23.90;81.70
47813;DHT22;34221;45.296;9.516;2022-09-16T00:28:54;23.80;81.60
47813;DHT22;34221;45.296;9.516;2022-09-16T00:29:10;23.80;81.60
47813;DHT22;34221;45.296;9.516;2022-09-16T00:29:25;23.80;81.60
47813;DHT22;34221;45.296;9.516;2022-09-16T00:29:40;23.80;81.70
47813;DHT22;34221;45.296;9.516;2022-09-16T00:29:54;23.80;81.80
47813;DHT22;34221;45.296;9.516;2022-09-16T00:30:10;23.80;81.90
47813;DHT22;34221;45.296;9.516;2022-09-16T00:30:25;23.80;81.90
47813;DHT22;34221;45.296;9.516;2022-09-16T00:30:40;23.80;82.00
47813;DHT22;34221;45.296;9.516;2022-09-16T00:31:00;23.80;82.10
47813;DHT22;34221;45.296;9.516;2022-09-16T00:31:17;23.80;82.10
47813;DHT22;34221;45.296;9.516;2022-09-16T00:31:32;23.80;82.00
47813;DHT22;34221;45.296;9.516;2022-09-16T00:31:47;23.90;82.10
47813;DHT22;34221;45.296;9.516;2022-09-16T00:32:02;23.80;82.00
47813;DHT22;34221;45.296;9.516;2022-09-16T00:32:17;23.80;81.90
47813;DHT22;34221;45.296;9.516;2022-09-16T00:32:33;23.80;82.00
47813;DHT22;34221;45.296;9.516;2022-09-16T00:32:48;23.90;82.10
47813;DHT22;34221;45.296;9.516;2022-09-16T00:33:03;23.90;82.00
47813;DHT22;34221;45.296;9.516;2022-09-16T00:33:19;23.90;81.90
47813;DHT22;34221;45.296;9.516;2022-09-16T00:33:34;23.90;81.90
47813;DHT22;34221;45.296;9.516;2022-09-16T00:33:49;23.90;81.80
47813;DHT22;34221;45.296;9.516;2022-09-16T00:34:04;23.90;81.80
47813;DHT22;34221;45.296;9.516;2022-09-16T00:34:19;23.90;81.80
47813;DHT22;34221;45.296;9.516;2022-09-16T00:34:34;23.80;81.60
47813;DHT22;34221;45.296;9.516;2022-09-16T00:34:50;23.90;81.80
47813;DHT22;34221;45.296;9.516;2022-09-16T00:35:06;23.90;81.90
47813;DHT22;34221;45.296;9.516;2022-09-16T00:35:21;23.80;82.00
47813;DHT22;34221;45.296;9.516;2022-09-16T00:35:36;23.90;82.10
47813;DHT22;34221;45.296;9.516;2022-09-16T00:35:51;23.90;82.10
47813;DHT22;34221;45.296;9.516;2022-09-16T00:36:08;23.80;82.10
47813;DHT22;34221;45.296;9.516;2022-09-16T00:36:24;23.90;82.10
47813;DHT22;34221;45.296;9.516;2022-09-16T00:36:39;23.90;82.30
47813;DHT22;34221;45.296;9.516;2022-09-16T00:36:54;23.80;82.10
47813;DHT22;34221;45.296;9.516;2022-09-16T00:37:09;23.80;82.00
47813;DHT22;34221;45.296;9.516;2022-09-16T00:37:24;23.80;82.00
47813;DHT22;34221;45.296;9.516;2022-09-16T00:37:39;23.80;82.20
47813;DHT22;34221;45.296;9.516;2022-09-16T00:37:54;23.80;82.30
47813;DHT22;34221;45.296;9.516;2022-09-16T00:38:09;23.80;82.50
47813;DHT22;34221;45.296;9.516;2022-09-16T00:38:24;23.80;82.60
47813;DHT22;34221;45.296;9.516;2022-09-16T00:38:39;23.80;82.60
47813;DHT22;34221;45.296;9.516;2022-09-16T00:38:55;23.80;82.80
47813;DHT22;34221;45.296;9.516;2022-09-16T00:39:10;23.80;82.90
47813;DHT22;34221;45.296;9.516;2022-09-16T00:39:25;23.80;82.80
47813;DHT22;34221;45.296;9.516;2022-09-16T00:39:40;23.80;82.80
47813;DHT22;34221;45.296;9.516;2022-09-16T00:39:55;23.80;82.90
47813;DHT22;34221;45.296;9.516;2022-09-16T00:40:10;23.80;83.40
47813;DHT22;34221;45.296;9.516;2022-09-16T00:40:25;23.80;83.70
47813;DHT22;34221;45.296;9.516;2022-09-16T00:40:44;23.80;83.90
47813;DHT22;34221;45.296;9.516;2022-09-16T00:41:00;23.90;84.90
47813;DHT22;34221;45.296;9.516;2022-09-16T00:41:18;23.80;84.70
47813;DHT22;34221;45.296;9.516;2022-09-16T00:41:40;23.90;84.40
47813;DHT22;34221;45.296;9.516;2022-09-16T00:41:55;23.90;84.20
47813;DHT22;34221;45.296;9.516;2022-09-16T00:42:10;23.90;84.20
47813;DHT22;34221;45.296;9.516;2022-09-16T00:42:25;23.90;84.00
47813;DHT22;34221;45.296;9.516;2022-09-16T00:42:40;23.90;84.40
47813;DHT22;34221;45.296;9.516;2022-09-16T00:42:55;23.90;83.90
47813;DHT22;34221;45.296;9.516;2022-09-16T00:43:15;23.90;83.70
47813;DHT22;34221;45.296;9.516;2022-09-16T00:43:51;23.90;83.50
47813;DHT22;34221;45.296;9.516;2022-09-16T00:45:20;24.00;83.20
47813;DHT22;34221;45.296;9.516;2022-09-16T00:45:36;23.90;82.80
47813;DHT22;34221;45.296;9.516;2022-09-16T00:46:01;23.90;82.70
47813;DHT22;34221;45.296;9.516;2022-09-16T00:46:22;23.90;82.70
47813;DHT22;34221;45.296;9.516;2022-09-16T00:46:45;23.90;83.60
47813;DHT22;34221;45.296;9.516;2022-09-16T00:47:01;23.90;83.30
47813;DHT22;34221;45.296;9.516;2022-09-16T00:47:20;23.90;83.60
47813;DHT22;34221;45.296;9.516;2022-09-16T00:47:51;23.90;83.90
47813;DHT22;34221;45.296;9.516;2022-09-16T00:48:15;23.90;83.70
47813;DHT22;34221;45.296;9.516;2022-09-16T00:48:33;23.90;83.40
47813;DHT22;34221;45.296;9.516;2022-09-16T00:48:48;23.90;83.80
47813;DHT22;34221;45.296;9.516;2022-09-16T00:49:10;24.00;84.30
47813;DHT22;34221;45.296;9.516;2022-09-16T00:49:29;24.00;84.30
47813;DHT22;34221;45.296;9.516;2022-09-16T00:49:45;24.00;84.50
47813;DHT22;34221;45.296;9.516;2022-09-16T00:50:28;24.00;84.20
47813;DHT22;34221;45.296;9.516;2022-09-16T00:51:08;24.00;84.40
47813;DHT22;34221;45.296;9.516;2022-09-16T00:51:24;24.00;84.40
47813;DHT22;34221;45.296;9.516;2022-09-16T00:51:41;24.00;84.30
47813;DHT22;34221;45.296;9.516;2022-09-16T00:52:00;24.10;84.50
47813;DHT22;34221;45.296;9.516;2022-09-16T00:52:18;24.00;84.40
47813;DHT22;34221;45.296;9.516;2022-09-16T00:52:33;24.00;84.50
47813;DHT22;34221;45.296;9.516;2022-09-16T00:52:50;24.00;84.60
47813;DHT22;34221;45.296;9.516;2022-09-16T00:53:14;24.00;84.90
47813;DHT22;34221;45.296;9.516;2022-09-16T00:53:34;24.00;84.70
47813;DHT22;34221;45.296;9.516;2022-09-16T00:53:55;24.10;84.80
47813;DHT22;34221;45.296;9.516;2022-09-16T00:54:15;24.10;84.90
47813;DHT22;34221;45.296;9.516;2022-09-16T00:54:31;24.10;84.70
47813;DHT22;34221;45.296;9.516;2022-09-16T00:54:48;24.10;84.80
47813;DHT22;34221;45.296;9.516;2022-09-16T00:55:06;24.10;85.10
47813;DHT22;34221;45.296;9.516;2022-09-16T00:55:26;24.10;85.20
47813;DHT22;34221;45.296;9.516;2022-09-16T00:55:49;24.10;85.00
47813;DHT22;34221;45.296;9.516;2022-09-16T00:56:06;24.10;84.40
47813;DHT22;34221;45.296;9.516;2022-09-16T00:56:25;24.10;84.10
47813;DHT22;34221;45.296;9.516;2022-09-16T00:56:44;24.10;84.00
47813;DHT22;34221;45.296;9.516;2022-09-16T00:57:02;24.10;84.10
47813;DHT22;34221;45.296;9.516;2022-09-16T00:57:18;24.00;84.50
47813;DHT22;34221;45.296;9.516;2022-09-16T00:57:33;24.10;84.50
47813;DHT22;34221;45.296;9.516;2022-09-16T00:58:44;24.10;84.60
47813;DHT22;34221;45.296;9.516;2022-09-16T00:59:12;24.00;84.70
47813;DHT22;34221;45.296;9.516;2022-09-16T00:59:35;24.00;84.10
47813;DHT22;34221;45.296;9.516;2022-09-16T00:59:53;24.00;83.70
47813;DHT22;34221;45.296;9.516;2022-09-16T01:00:10;23.90;83.90
47813;DHT22;34221;45.296;9.516;2022-09-16T01:00:26;24.00;83.80
47813;DHT22;34221;45.296;9.516;2022-09-16T01:00:41;24.00;83.80
47813;DHT22;34221;45.296;9.516;2022-09-16T01:00:56;24.00;83.90
47813;DHT22;34221;45.296;9.516;2022-09-16T01:01:11;23.90;83.90
47813;DHT22;34221;45.296;9.516;2022-09-16T01:01:28;24.00;84.00
47813;DHT22;34221;45.296;9.516;2022-09-16T01:01:45;23.90;84.00
47813;DHT22;34221;45.296;9.516;2022-09-16T01:02:05;24.00;84.00
47813;DHT22;34221;45.296;9.516;2022-09-16T01:02:26;23.90;84.10
47813;DHT22;34221;45.296;9.516;2022-09-16T01:02:43;23.90;84.00
47813;DHT22;34221;45.296;9.516;2022-09-16T01:03:03;23.90;84.00
47813;DHT22;34221;45.296;9.516;2022-09-16T01:03:19;23.90;83.90
47813;DHT22;34221;45.296;9.516;2022-09-16T01:03:44;23.90;83.90
47813;DHT22;34221;45.296;9.516;2022-09-16T01:04:17;23.90;83.70
47813;DHT22;34221;45.296;9.516;2022-09-16T01:04:54;23.90;83.80
47813;DHT22;34221;45.296;9.516;2022-09-16T01:05:18;23.90;83.40
47813;DHT22;34221;45.296;9.516;2022-09-16T01:05:35;23.90;83.50
47813;DHT22;34221;45.296;9.516;2022-09-16T01:05:51;23.90;83.90
47813;DHT22;34221;45.296;9.516;2022-09-16T01:06:06;23.80;84.10
47813;DHT22;34221;45.296;9.516;2022-09-16T01:06:23;23.90;84.30
47813;DHT22;34221;45.296;9.516;2022-09-16T01:06:39;23.90;84.40
47813;DHT22;34221;45.296;9.516;2022-09-16T01:06:55;23.80;84.20
47813;DHT22;34221;45.296;9.516;2022-09-16T01:07:11;23.90;84.00
47813;DHT22;34221;45.296;9.516;2022-09-16T01:07:32;23.90;83.90
47813;DHT22;34221;45.296;9.516;2022-09-16T01:07:51;23.90;83.80
47813;DHT22;34221;45.296;9.516;2022-09-16T01:08:07;23.90;83.60
47813;DHT22;34221;45.296;9.516;2022-09-16T01:08:22;23.90;83.50
47813;DHT22;34221;45.296;9.516;2022-09-16T01:08:40;23.90;83.30
47813;DHT22;34221;45.296;9.516;2022-09-16T01:08:56;23.90;83.30
47813;DHT22;34221;45.296;9.516;2022-09-16T01:09:11;23.90;83.10
47813;DHT22;34221;45.296;9.516;2022-09-16T01:09:27;23.90;83.10
47813;DHT22;34221;45.296;9.516;2022-09-16T01:09:43;23.90;82.90
47813;DHT22;34221;45.296;9.516;2022-09-16T01:10:01;23.90;82.80
47813;DHT22;34221;45.296;9.516;2022-09-16T01:10:20;23.90;82.80
47813;DHT22;34221;45.296;9.516;2022-09-16T01:10:39;23.90;82.70
47813;DHT22;34221;45.296;9.516;2022-09-16T01:10:56;23.90;82.80
47813;DHT22;34221;45.296;9.516;2022-09-16T01:11:11;23.90;82.80
47813;DHT22;34221;45.296;9.516;2022-09-16T01:11:26;23.90;82.80
47813;DHT22;34221;45.296;9.516;2022-09-16T01:11:41;23.90;82.80
47813;DHT22;34221;45.296;9.516;2022-09-16T01:11:56;23.90;82.80
47813;DHT22;34221;45.296;9.516;2022-09-16T01:12:11;23.90;82.80
47813;DHT22;34221;45.296;9.516;2022-09-16T01:12:27;23.90;83.00
47813;DHT22;34221;45.296;9.516;2022-09-16T01:12:46;23.90;83.30
47813;DHT22;34221;45.296;9.516;2022-09-16T01:13:05;23.80;83.60
47813;DHT22;34221;45.296;9.516;2022-09-16T01:13:22;23.90;83.90
47813;DHT22;34221;45.296;9.516;2022-09-16T01:13:38;23.90;83.60
47813;DHT22;34221;45.296;9.516;2022-09-16T01:13:54;23.90;84.00
47813;DHT22;34221;45.296;9.516;2022-09-16T01:14:29;23.90;83.50
47813;DHT22;34221;45.296;9.516;2022-09-16T01:15:04;23.90;83.90
47813;DHT22;34221;45.296;9.516;2022-09-16T01:15:23;23.90;84.50
47813;DHT22;34221;45.296;9.516;2022-09-16T01:15:57;23.90;84.60
47813;DHT22;34221;45.296;9.516;2022-09-16T01:16:32;23.90;84.70
47813;DHT22;34221;45.296;9.516;2022-09-16T01:18:28;23.90;84.00
47813;DHT22;34221;45.296;9.516;2022-09-16T01:21:02;23.90;85.20
47813;DHT22;34221;45.296;9.516;2022-09-16T01:25:55;23.90;85.20
47813;DHT22;34221;45.296;9.516;2022-09-16T01:27:48;23.90;85.50
47813;DHT22;34221;45.296;9.516;2022-09-16T01:31:22;23.90;84.80
47813;DHT22;34221;45.296;9.516;2022-09-16T01:33:02;23.80;84.00
47813;DHT22;34221;45.296;9.516;2022-09-16T01:33:45;23.80;84.00
47813;DHT22;34221;45.296;9.516;2022-09-16T01:34:21;23.80;83.80
47813;DHT22;34221;45.296;9.516;2022-09-16T01:36:08;23.80;83.80
47813;DHT22;34221;45.296;9.516;2022-09-16T01:38:42;23.60;84.10
47813;DHT22;34221;45.296;9.516;2022-09-16T01:40:25;23.60;84.30
47813;DHT22;34221;45.296;9.516;2022-09-16T01:44:53;23.50;84.80
47813;DHT22;34221;45.296;9.516;2022-09-16T01:48:54;23.60;85.60
47813;DHT22;34221;45.296;9.516;2022-09-16T01:49:41;23.50;85.40
47813;DHT22;34221;45.296;9.516;2022-09-16T01:50:23;23.60;85.40
47813;DHT22;34221;45.296;9.516;2022-09-16T01:51:06;23.50;85.50
47813;DHT22;34221;45.296;9.516;2022-09-16T01:51:25;23.50;85.50
47813;DHT22;34221;45.296;9.516;2022-09-16T01:52:37;23.50;85.40
47813;DHT22;34221;45.296;9.516;2022-09-16T01:55:03;23.50;85.70
47813;DHT22;34221;45.296;9.516;2022-09-16T01:55:31;23.50;85.70
47813;DHT22;34221;45.296;9.516;2022-09-16T01:56:16;23.50;85.70
47813;DHT22;34221;45.296;9.516;2022-09-16T01:58:16;23.50;85.50
47813;DHT22;34221;45.296;9.516;2022-09-16T01:59:09;23.50;85.50
47813;DHT22;34221;45.296;9.516;2022-09-16T01:59:37;23.50;85.50
47813;DHT22;34221;45.296;9.516;2022-09-16T02:00:15;23.40;85.70
47813;DHT22;34221;45.296;9.516;2022-09-16T02:00:30;23.40;85.60
47813;DHT22;34221;45.296;9.516;2022-09-16T02:00:47;23.40;85.70
47813;DHT22;34221;45.296;9.516;2022-09-16T02:01:20;23.40;85.70
47813;DHT22;34221;45.296;9.516;2022-09-16T02:02:18;23.40;85.70
47813;DHT22;34221;45.296;9.516;2022-09-16T02:03:18;23.40;85.90
47813;DHT22;34221;45.296;9.516;2022-09-16T02:03:38;23.40;85.90
47813;DHT22;34221;45.296;9.516;2022-09-16T02:04:11;23.40;85.90
47813;DHT22;34221;45.296;9.516;2022-09-16T02:04:33;23.40;85.90
47813;DHT22;34221;45.296;9.516;2022-09-16T02:05:02;23.40;86.10
47813;DHT22;34221;45.296;9.516;2022-09-16T02:05:27;23.40;86.10
47813;DHT22;34221;45.296;9.516;2022-09-16T02:05:59;23.40;86.10
47813;DHT22;34221;45.296;9.516;2022-09-16T02:06:20;23.40;86.30
47813;DHT22;34221;45.296;9.516;2022-09-16T02:06:37;23.30;86.10
47813;DHT22;34221;45.296;9.516;2022-09-16T02:06:55;23.30;86.20
47813;DHT22;34221;45.296;9.516;2022-09-16T02:07:14;23.40;86.20
47813;DHT22;34221;45.296;9.516;2022-09-16T02:07:32;23.40;86.00
47813;DHT22;34221;45.296;9.516;2022-09-16T02:07:53;23.40;86.20
47813;DHT22;34221;45.296;9.516;2022-09-16T02:08:24;23.30;86.30
47813;DHT22;34221;45.296;9.516;2022-09-16T02:08:49;23.40;86.50
47813;DHT22;34221;45.296;9.516;2022-09-16T02:09:17;23.40;86.50
47813;DHT22;34221;45.296;9.516;2022-09-16T02:09:41;23.40;86.70
47813;DHT22;34221;45.296;9.516;2022-09-16T02:10:23;23.40;86.60
47813;DHT22;34221;45.296;9.516;2022-09-16T02:10:45;23.30;86.60
47813;DHT22;34221;45.296;9.516;2022-09-16T02:11:05;23.40;86.70
47813;DHT22;34221;45.296;9.516;2022-09-16T02:11:22;23.30;86.60
47813;DHT22;34221;45.296;9.516;2022-09-16T02:11:38;23.30;86.60
47813;DHT22;34221;45.296;9.516;2022-09-16T02:11:56;23.30;86.50
47813;DHT22;34221;45.296;9.516;2022-09-16T02:12:17;23.30;86.50
47813;DHT22;34221;45.296;9.516;2022-09-16T02:12:39;23.40;86.40
47813;DHT22;34221;45.296;9.516;2022-09-16T02:13:04;23.30;86.50
47813;DHT22;34221;45.296;9.516;2022-09-16T02:13:46;23.30;86.70
47813;DHT22;34221;45.296;9.516;2022-09-16T02:14:09;23.30;87.00
47813;DHT22;34221;45.296;9.516;2022-09-16T02:14:29;23.30;87.10
47813;DHT22;34221;45.296;9.516;2022-09-16T02:14:47;23.30;87.00
47813;DHT22;34221;45.296;9.516;2022-09-16T02:15:07;23.30;87.10
47813;DHT22;34221;45.296;9.516;2022-09-16T02:15:25;23.30;87.10
47813;DHT22;34221;45.296;9.516;2022-09-16T02:15:42;23.30;87.20
47813;DHT22;34221;45.296;9.516;2022-09-16T02:16:06;23.30;87.30
47813;DHT22;34221;45.296;9.516;2022-09-16T02:16:35;23.30;87.40
47813;DHT22;34221;45.296;9.516;2022-09-16T02:17:02;23.20;87.40
47813;DHT22;34221;45.296;9.516;2022-09-16T02:17:23;23.20;87.70
47813;DHT22;34221;45.296;9.516;2022-09-16T02:17:44;23.20;87.60
47813;DHT22;34221;45.296;9.516;2022-09-16T02:18:08;23.20;88.00
47813;DHT22;34221;45.296;9.516;2022-09-16T02:18:29;23.10;88.20
47813;DHT22;34221;45.296;9.516;2022-09-16T02:18:53;23.10;88.20
47813;DHT22;34221;45.296;9.516;2022-09-16T02:19:14;23.10;88.30
47813;DHT22;34221;45.296;9.516;2022-09-16T02:20:07;23.10;88.30
47813;DHT22;34221;45.296;9.516;2022-09-16T02:20:25;23.10;88.60
47813;DHT22;34221;45.296;9.516;2022-09-16T02:20:44;23.10;88.60
47813;DHT22;34221;45.296;9.516;2022-09-16T02:21:03;23.00;88.80
47813;DHT22;34221;45.296;9.516;2022-09-16T02:21:21;22.90;88.90
47813;DHT22;34221;45.296;9.516;2022-09-16T02:21:38;22.90;88.90
47813;DHT22;34221;45.296;9.516;2022-09-16T02:21:56;23.00;89.30
47813;DHT22;34221;45.296;9.516;2022-09-16T02:22:17;23.00;89.30
47813;DHT22;34221;45.296;9.516;2022-09-16T02:22:43;23.00;89.20
47813;DHT22;34221;45.296;9.516;2022-09-16T02:23:15;23.00;89.10
47813;DHT22;34221;45.296;9.516;2022-09-16T02:23:40;23.00;89.30
47813;DHT22;34221;45.296;9.516;2022-09-16T02:24:11;23.00;88.90
47813;DHT22;34221;45.296;9.516;2022-09-16T02:24:50;23.00;89.50
47813;DHT22;34221;45.296;9.516;2022-09-16T02:25:07;23.00;89.40
47813;DHT22;34221;45.296;9.516;2022-09-16T02:25:23;23.00;89.30
47813;DHT22;34221;45.296;9.516;2022-09-16T02:25:41;23.00;89.30
47813;DHT22;34221;45.296;9.516;2022-09-16T02:25:58;23.00;89.20
47813;DHT22;34221;45.296;9.516;2022-09-16T02:26:20;23.00;89.10
47813;DHT22;34221;45.296;9.516;2022-09-16T02:26:40;23.00;89.00
47813;DHT22;34221;45.296;9.516;2022-09-16T02:27:03;23.00;89.10
47813;DHT22;34221;45.296;9.516;2022-09-16T02:27:22;23.00;89.10
47813;DHT22;34221;45.296;9.516;2022-09-16T02:27:39;23.00;88.90
47813;DHT22;34221;45.296;9.516;2022-09-16T02:27:55;23.10;89.00
47813;DHT22;34221;45.296;9.516;2022-09-16T02:28:14;23.00;88.80
47813;DHT22;34221;45.296;9.516;2022-09-16T02:28:35;23.10;88.90
47813;DHT22;34221;45.296;9.516;2022-09-16T02:28:52;23.10;89.00
47813;DHT22;34221;45.296;9.516;2022-09-16T02:29:12;23.00;88.80
47813;DHT22;34221;45.296;9.516;2022-09-16T02:29:52;23.00;88.80
47813;DHT22;34221;45.296;9.516;2022-09-16T02:30:14;23.00;88.60
47813;DHT22;34221;45.296;9.516;2022-09-16T02:30:31;23.00;88.60
47813;DHT22;34221;45.296;9.516;2022-09-16T02:30:53;22.90;88.60
47813;DHT22;34221;45.296;9.516;2022-09-16T02:31:11;22.90;88.50
47813;DHT22;34221;45.296;9.516;2022-09-16T02:31:31;22.90;88.80
47813;DHT22;34221;45.296;9.516;2022-09-16T02:31:48;22.90;88.90
47813;DHT22;34221;45.296;9.516;2022-09-16T02:32:07;22.90;88.90
47813;DHT22;34221;45.296;9.516;2022-09-16T02:32:25;22.90;88.90
47813;DHT22;34221;45.296;9.516;2022-09-16T02:32:48;22.90;88.90
47813;DHT22;34221;45.296;9.516;2022-09-16T02:33:06;22.80;88.80
47813;DHT22;34221;45.296;9.516;2022-09-16T02:33:27;22.80;88.90
47813;DHT22;34221;45.296;9.516;2022-09-16T02:34:22;22.80;88.80
47813;DHT22;34221;45.296;9.516;2022-09-16T02:34:43;22.80;89.00
47813;DHT22;34221;45.296;9.516;2022-09-16T02:35:01;22.80;89.10
47813;DHT22;34221;45.296;9.516;2022-09-16T02:35:18;22.80;89.20
47813;DHT22;34221;45.296;9.516;2022-09-16T02:35:36;22.80;89.00
47813;DHT22;34221;45.296;9.516;2022-09-16T02:35:54;22.80;89.10
47813;DHT22;34221;45.296;9.516;2022-09-16T02:36:12;22.70;89.20
47813;DHT22;34221;45.296;9.516;2022-09-16T02:36:30;22.70;89.20
47813;DHT22;34221;45.296;9.516;2022-09-16T02:36:51;22.70;89.40
47813;DHT22;34221;45.296;9.516;2022-09-16T02:37:28;22.60;89.40
47813;DHT22;34221;45.296;9.516;2022-09-16T02:37:51;22.70;89.80